Time;durP1;ratioP1;P1;durP2;ratioP2;P2;SDS_P1;SDS_P2;PMS_P1;PMS_P2;Temp;Humidity;BMP_temperature;BMP_pressure;BME280_temperature;BME280_humidity;BME280_pressure;Samples;Min_cycle;Max_cycle;Signal;HPM_P1;HPM_P2
2023/07/21 00:01:49;;;;;;;1.63;0.40;;;16.50;99.90;;;;;;4979549;28;20137;-69
2023/07/21 00:04:17;;;;;;;0.70;0.30;;;16.50;99.90;;;;;;4985752;28;20062;-69
2023/07/21 00:06:43;;;;;;;1.60;0.30;;;16.50;99.90;;;;;;4980973;28;20038;-69
2023/07/21 00:09:09;;;;;;;0.98;0.28;;;16.50;99.90;;;;;;4980308;28;20043;-69
2023/07/21 00:11:38;;;;;;;0.60;0.30;;;16.50;99.90;;;;;;4984364;28;20121;-70
2023/07/21 00:14:06;;;;;;;1.33;0.30;;;16.50;99.90;;;;;;4982192;28;20027;-69
2023/07/21 00:16:33;;;;;;;0.95;0.30;;;16.50;99.90;;;;;;4980334;28;20113;-70
2023/07/21 00:18:59;;;;;;;1.17;0.50;;;16.50;99.90;;;;;;4979999;28;20027;-71
2023/07/21 00:21:25;;;;;;;1.30;0.40;;;16.50;99.90;;;;;;4982188;28;20045;-68
2023/07/21 00:23:51;;;;;;;0.70;0.38;;;16.40;99.90;;;;;;4976583;28;20046;-69
2023/07/21 00:26:17;;;;;;;2.97;0.60;;;16.40;99.90;;;;;;4982311;28;20092;-69
2023/07/21 00:28:43;;;;;;;0.57;0.32;;;16.30;99.90;;;;;;4981203;28;20042;-69
2023/07/21 00:31:09;;;;;;;0.85;0.43;;;16.30;99.90;;;;;;4978630;28;20119;-70
2023/07/21 00:33:35;;;;;;;1.13;0.40;;;16.20;99.90;;;;;;4979725;28;20531;-69
2023/07/21 00:36:00;;;;;;;0.70;0.30;;;16.20;99.90;;;;;;4984221;28;20031;-68
2023/07/21 00:38:26;;;;;;;2.15;0.40;;;16.20;99.90;;;;;;4984280;28;20065;-69
2023/07/21 00:40:51;;;;;;;1.30;0.35;;;16.10;99.90;;;;;;4978551;28;20041;-69
2023/07/21 00:43:18;;;;;;;1.50;0.35;;;16.10;99.90;;;;;;4976569;28;20488;-69
2023/07/21 00:45:46;;;;;;;1.45;0.38;;;16.10;99.90;;;;;;4983231;28;20031;-68
2023/07/21 00:48:13;;;;;;;0.80;0.40;;;16.10;99.90;;;;;;4978797;28;20085;-69
2023/07/21 00:50:49;;;;;;;0.95;0.38;;;16.10;99.90;;;;;;4981879;28;20039;-69
2023/07/21 00:53:15;;;;;;;0.80;0.30;;;16.00;99.90;;;;;;4979519;28;20042;-71
2023/07/21 00:55:42;;;;;;;1.58;0.30;;;16.00;99.90;;;;;;4980787;28;20045;-70
2023/07/21 00:58:11;;;;;;;1.52;0.32;;;16.00;99.90;;;;;;4980343;28;20031;-71
2023/07/21 01:00:38;;;;;;;1.10;0.80;;;16.00;99.90;;;;;;4976850;28;20121;-71
2023/07/21 01:03:05;;;;;;;0.80;0.40;;;15.90;99.90;;;;;;4978895;28;21159;-69
2023/07/21 01:05:33;;;;;;;0.88;0.30;;;15.90;99.90;;;;;;4972700;28;20035;-69
2023/07/21 01:08:01;;;;;;;0.65;0.30;;;15.80;99.90;;;;;;4979544;28;20034;-69
2023/07/21 01:10:28;;;;;;;0.65;0.30;;;15.80;99.90;;;;;;4977106;28;20504;-69
2023/07/21 01:12:54;;;;;;;0.77;0.38;;;15.70;99.90;;;;;;4977425;28;20115;-71
2023/07/21 01:15:20;;;;;;;0.45;0.30;;;15.70;99.90;;;;;;4979212;28;20042;-71
2023/07/21 01:17:49;;;;;;;1.48;0.43;;;15.60;99.90;;;;;;4978276;28;20035;-71
2023/07/21 01:20:22;;;;;;;0.63;0.25;;;15.60;99.90;;;;;;4979139;28;20031;-70
2023/07/21 01:23:00;;;;;;;1.52;0.32;;;15.60;99.90;;;;;;4982826;28;20077;-68
2023/07/21 01:25:28;;;;;;;6.25;0.60;;;15.50;99.90;;;;;;4980488;28;20126;-69
2023/07/21 01:27:55;;;;;;;1.05;0.43;;;15.50;99.90;;;;;;4976014;28;20038;-70
2023/07/21 01:30:21;;;;;;;0.80;0.30;;;15.40;99.90;;;;;;4979368;28;20562;-70
2023/07/21 01:32:49;;;;;;;0.68;0.43;;;15.40;99.90;;;;;;4979495;28;20041;-70
2023/07/21 01:35:17;;;;;;;3.65;0.25;;;15.40;99.90;;;;;;4982331;28;20026;-70
2023/07/21 01:37:44;;;;;;;1.38;0.28;;;15.40;99.90;;;;;;4979275;28;20038;-70
2023/07/21 02:16:26;;;;;;;1.35;0.70;;;15.00;99.90;;;;;;5790621;23;20510;-72
2023/07/21 02:18:52;;;;;;;1.27;0.68;;;14.90;99.90;;;;;;4997062;28;20538;-71
2023/07/21 02:21:18;;;;;;;1.00;0.70;;;14.90;99.90;;;;;;4996664;28;20531;-74
2023/07/21 02:23:44;;;;;;;2.47;1.10;;;14.90;99.90;;;;;;4998239;28;20062;-72
2023/07/21 02:26:09;;;;;;;1.50;1.00;;;14.80;99.90;;;;;;4995907;28;20050;-72
2023/07/21 02:28:35;;;;;;;3.20;1.00;;;14.80;99.90;;;;;;4993092;28;20085;-72
2023/07/21 02:31:03;;;;;;;2.97;0.98;;;14.80;99.90;;;;;;4984979;28;20414;-74
2023/07/21 02:33:30;;;;;;;1.90;0.93;;;14.80;99.90;;;;;;4984652;28;20569;-72
2023/07/21 02:36:00;;;;;;;2.58;1.20;;;14.80;99.90;;;;;;4986038;28;20022;-73
2023/07/21 02:38:26;;;;;;;2.45;1.38;;;14.80;99.90;;;;;;4984056;28;20037;-72
2023/07/21 02:40:52;;;;;;;2.55;1.35;;;14.80;99.90;;;;;;4990689;28;20034;-73
2023/07/21 02:43:18;;;;;;;4.50;1.38;;;14.80;99.90;;;;;;4987506;28;20158;-73
2023/07/21 02:45:50;;;;;;;4.50;1.90;;;14.70;99.90;;;;;;4991594;28;20117;-72
2023/07/21 02:48:18;;;;;;;2.55;1.70;;;14.70;99.90;;;;;;4998872;28;20044;-72
2023/07/21 02:50:52;;;;;;;4.82;1.77;;;14.70;99.90;;;;;;5000029;28;20030;-72
2023/07/21 02:53:19;;;;;;;3.10;1.60;;;14.60;99.90;;;;;;5000175;28;20074;-72
2023/07/21 02:55:45;;;;;;;2.65;1.65;;;14.70;99.90;;;;;;4999924;28;20081;-72
2023/07/21 02:58:13;;;;;;;4.28;2.15;;;14.60;99.90;;;;;;5000924;28;20038;-72
2023/07/21 03:00:39;;;;;;;4.22;2.40;;;14.60;99.90;;;;;;4998316;28;20030;-72
2023/07/21 03:03:06;;;;;;;4.18;2.10;;;14.60;99.90;;;;;;4997954;28;20064;-71
2023/07/21 03:05:33;;;;;;;4.30;2.20;;;14.60;99.90;;;;;;5001318;28;20037;-72
2023/07/21 03:08:00;;;;;;;3.03;2.03;;;14.60;99.90;;;;;;5002417;28;20446;-72
2023/07/21 03:10:25;;;;;;;6.70;2.53;;;14.70;99.90;;;;;;4998198;28;20077;-72
2023/07/21 03:12:52;;;;;;;3.97;2.20;;;14.70;99.90;;;;;;5000909;28;20057;-72
2023/07/21 03:15:17;;;;;;;3.80;2.05;;;14.70;99.90;;;;;;5001162;28;20419;-72
2023/07/21 03:17:43;;;;;;;3.90;1.95;;;14.80;99.90;;;;;;5001169;28;20049;-73
2023/07/21 03:20:12;;;;;;;6.53;2.50;;;14.70;99.90;;;;;;5000852;28;20117;-72
2023/07/21 03:22:38;;;;;;;6.20;2.63;;;14.80;99.90;;;;;;4996988;28;20030;-72
2023/07/21 03:25:06;;;;;;;4.90;3.08;;;14.80;99.90;;;;;;4993177;28;20117;-72
2023/07/21 03:27:33;;;;;;;4.70;2.33;;;14.80;99.90;;;;;;4999979;28;20125;-72
2023/07/21 03:29:58;;;;;;;3.85;2.65;;;14.80;99.90;;;;;;5001179;28;20038;-73
2023/07/21 03:32:24;;;;;;;5.95;2.42;;;14.80;99.90;;;;;;4998919;28;20116;-72
2023/07/21 03:34:50;;;;;;;4.65;2.53;;;14.80;99.90;;;;;;5001580;28;20514;-74
2023/07/21 03:37:16;;;;;;;5.50;2.53;;;14.80;99.90;;;;;;4999504;28;20069;-74
2023/07/21 03:39:44;;;;;;;5.38;3.40;;;14.70;99.90;;;;;;5000828;28;20080;-74
2023/07/21 03:42:10;;;;;;;7.72;2.85;;;14.70;99.90;;;;;;4999851;28;20121;-71
2023/07/21 03:44:36;;;;;;;5.38;2.97;;;14.70;99.90;;;;;;4999842;28;20114;-73
2023/07/21 03:47:02;;;;;;;5.10;3.15;;;14.60;99.90;;;;;;5000722;28;20037;-71
2023/07/21 03:49:27;;;;;;;5.50;3.15;;;14.60;99.90;;;;;;4997299;28;20057;-73
2023/07/21 03:51:53;;;;;;;4.35;2.63;;;14.60;99.90;;;;;;4995809;28;20034;-73
2023/07/21 03:54:18;;;;;;;4.63;2.58;;;14.50;99.90;;;;;;4999512;28;20114;-71
2023/07/21 03:56:44;;;;;;;4.30;2.67;;;14.40;99.90;;;;;;5000746;28;20526;-71
2023/07/21 03:59:10;;;;;;;4.82;3.22;;;14.40;99.90;;;;;;4999233;28;20368;-74
2023/07/21 04:01:35;;;;;;;4.72;2.70;;;14.40;99.90;;;;;;4999833;28;20031;-72
2023/07/21 04:04:02;;;;;;;5.22;3.20;;;14.40;99.90;;;;;;5000780;28;20052;-72
2023/07/21 04:06:27;;;;;;;4.40;3.03;;;14.30;99.90;;;;;;4998100;28;20026;-71
2023/07/21 04:08:53;;;;;;;4.50;2.55;;;14.30;99.90;;;;;;5000041;28;20033;-73
2023/07/21 04:11:19;;;;;;;4.68;3.08;;;14.20;99.90;;;;;;4998324;28;20072;-72
2023/07/21 04:13:45;;;;;;;6.38;2.97;;;14.20;99.90;;;;;;5000333;28;20027;-72
2023/07/21 04:16:11;;;;;;;5.05;2.97;;;14.20;99.90;;;;;;4999234;28;20038;-72
2023/07/21 04:18:38;;;;;;;6.10;3.08;;;14.20;99.90;;;;;;4999601;28;20613;-72
2023/07/21 04:21:04;;;;;;;5.25;3.15;;;14.20;99.90;;;;;;4999719;28;20095;-72
2023/07/21 04:23:29;;;;;;;5.03;2.92;;;14.20;99.90;;;;;;4998630;28;20110;-72
2023/07/21 04:25:55;;;;;;;4.40;2.83;;;14.20;99.90;;;;;;4995274;28;20491;-73
2023/07/21 04:28:21;;;;;;;5.80;3.25;;;14.20;99.90;;;;;;4995546;28;20038;-72
2023/07/21 04:30:47;;;;;;;5.45;3.17;;;14.20;99.90;;;;;;5001039;28;20113;-73
2023/07/21 04:33:13;;;;;;;6.10;3.28;;;14.20;99.90;;;;;;4998361;28;20045;-73
2023/07/21 04:35:48;;;;;;;4.20;2.53;;;14.30;99.90;;;;;;4999432;28;20403;-73
2023/07/21 04:38:14;;;;;;;5.60;3.78;;;14.30;99.90;;;;;;4997848;28;22017;-73
2023/07/21 04:40:46;;;;;;;5.75;3.38;;;14.30;99.90;;;;;;4999929;28;20041;-71
2023/07/21 04:43:12;;;;;;;7.30;2.83;;;14.40;99.90;;;;;;4998208;28;20107;-72
2023/07/21 04:45:41;;;;;;;4.13;2.90;;;14.40;99.90;;;;;;4999493;28;20034;-73
2023/07/21 04:48:07;;;;;;;6.07;3.30;;;14.50;99.90;;;;;;4998598;28;20052;-72
2023/07/21 04:50:33;;;;;;;5.20;3.03;;;14.60;99.90;;;;;;5001964;28;20073;-72
2023/07/21 04:52:59;;;;;;;4.82;2.80;;;14.70;99.90;;;;;;4997116;28;20066;-72
2023/07/21 04:55:26;;;;;;;9.70;3.17;;;14.70;99.90;;;;;;5000932;28;20092;-73
2023/07/21 04:57:52;;;;;;;11.98;3.42;;;14.80;99.90;;;;;;4995376;28;20038;-72
2023/07/21 05:00:18;;;;;;;6.05;2.58;;;14.90;99.90;;;;;;4995066;28;20029;-73
2023/07/21 05:02:44;;;;;;;5.28;2.97;;;15.00;99.90;;;;;;4997760;28;20061;-72
2023/07/21 05:05:10;;;;;;;6.25;3.45;;;15.10;99.90;;;;;;4998075;28;20420;-73
2023/07/21 05:07:36;;;;;;;4.68;2.88;;;15.10;99.90;;;;;;4998750;28;20148;-72
2023/07/21 05:10:02;;;;;;;5.15;2.53;;;15.20;99.90;;;;;;4999020;28;20487;-72
2023/07/21 05:12:27;;;;;;;5.18;2.88;;;15.20;99.90;;;;;;4997191;28;20073;-72
2023/07/21 05:14:53;;;;;;;5.60;2.90;;;15.30;99.90;;;;;;5000258;28;20080;-71
2023/07/21 05:17:19;;;;;;;5.95;3.92;;;15.40;99.90;;;;;;4996613;28;20045;-71
2023/07/21 05:19:44;;;;;;;4.28;2.60;;;15.40;99.90;;;;;;5000016;28;20045;-73
2023/07/21 05:22:11;;;;;;;6.35;3.33;;;15.50;99.90;;;;;;4996964;28;20057;-73
2023/07/21 05:24:37;;;;;;;7.47;3.28;;;15.50;99.90;;;;;;4999157;28;20056;-73
2023/07/21 05:27:02;;;;;;;5.30;2.97;;;15.60;99.90;;;;;;4995829;28;20422;-73
2023/07/21 05:29:28;;;;;;;5.18;2.75;;;15.60;99.90;;;;;;4999536;28;20042;-73
2023/07/21 05:31:54;;;;;;;4.53;2.90;;;15.70;99.90;;;;;;4996136;28;20034;-77
2023/07/21 05:34:21;;;;;;;6.18;2.78;;;15.80;99.90;;;;;;5000316;28;20069;-72
2023/07/21 05:36:47;;;;;;;4.68;2.78;;;15.90;99.90;;;;;;4997276;28;20278;-72
2023/07/21 05:39:13;;;;;;;4.10;2.47;;;15.90;99.90;;;;;;4998704;28;20048;-71
2023/07/21 05:41:38;;;;;;;4.07;2.75;;;16.10;99.90;;;;;;4996681;28;20041;-72
2023/07/21 05:44:04;;;;;;;6.90;2.95;;;16.20;99.90;;;;;;4997430;28;20084;-72
2023/07/21 05:46:30;;;;;;;5.03;2.72;;;16.30;99.90;;;;;;4998747;28;20172;-72
2023/07/21 05:48:55;;;;;;;5.38;3.13;;;16.50;99.90;;;;;;4995860;28;20502;-72
2023/07/21 05:51:22;;;;;;;4.72;2.50;;;16.60;99.90;;;;;;4997138;28;20042;-71
2023/07/21 05:53:48;;;;;;;4.05;2.33;;;16.80;99.90;;;;;;4992568;28;20384;-75
2023/07/21 05:56:14;;;;;;;3.72;2.25;;;17.00;99.90;;;;;;4999392;28;20042;-72
2023/07/21 05:58:40;;;;;;;3.58;2.17;;;17.30;99.90;;;;;;4998379;28;20034;-73
2023/07/21 06:01:10;;;;;;;3.75;2.05;;;17.70;99.90;;;;;;4996933;28;20030;-72
2023/07/21 06:03:37;;;;;;;6.38;2.42;;;17.80;99.90;;;;;;4990364;28;20488;-72
2023/07/21 06:06:04;;;;;;;4.18;2.20;;;17.90;99.90;;;;;;4997749;28;20038;-71
2023/07/21 06:08:30;;;;;;;4.20;1.48;;;17.90;99.90;;;;;;4993056;28;20131;-72
2023/07/21 06:11:00;;;;;;;1.10;0.90;;;18.00;99.90;;;;;;4996924;28;20034;-72
2023/07/21 06:13:28;;;;;;;2.13;1.23;;;18.00;99.90;;;;;;4991730;28;20092;-72
2023/07/21 06:15:54;;;;;;;3.22;1.02;;;18.00;99.90;;;;;;4994675;28;20034;-74
2023/07/21 06:18:19;;;;;;;3.20;1.10;;;18.10;99.90;;;;;;4990977;28;20041;-73
2023/07/21 06:20:45;;;;;;;1.65;1.13;;;18.20;99.90;;;;;;4999833;28;20034;-71
2023/07/21 06:23:10;;;;;;;2.72;1.40;;;18.30;99.90;;;;;;4995841;28;20496;-71
2023/07/21 06:25:36;;;;;;;10.18;2.22;;;18.40;99.90;;;;;;4996193;28;20096;-72
2023/07/21 06:28:02;;;;;;;3.72;2.05;;;18.40;99.90;;;;;;4993541;28;20038;-72
2023/07/21 06:30:27;;;;;;;3.63;1.80;;;18.40;99.90;;;;;;4995675;28;20034;-71
2023/07/21 06:32:53;;;;;;;2.85;1.45;;;18.50;99.90;;;;;;4998500;28;20038;-72
2023/07/21 06:35:18;;;;;;;1.67;1.15;;;18.50;99.90;;;;;;4995821;28;20035;-72
2023/07/21 06:37:44;;;;;;;1.55;0.80;;;18.40;99.90;;;;;;4999211;28;20029;-73
2023/07/21 06:40:10;;;;;;;1.00;0.63;;;18.30;99.90;;;;;;4994445;28;20026;-73
2023/07/21 06:42:36;;;;;;;1.55;0.95;;;18.20;99.90;;;;;;4998348;28;20046;-71
2023/07/21 06:45:02;;;;;;;1.27;0.90;;;18.20;99.90;;;;;;4996451;28;20518;-73
2023/07/21 06:47:29;;;;;;;1.65;0.80;;;18.10;99.90;;;;;;4995834;28;20050;-73
2023/07/21 06:49:55;;;;;;;1.83;0.70;;;18.00;99.90;;;;;;4994583;28;20037;-73
2023/07/21 06:52:20;;;;;;;1.35;0.90;;;18.00;99.90;;;;;;4996254;28;20475;-72
2023/07/21 06:54:46;;;;;;;3.75;0.93;;;17.90;99.90;;;;;;4998984;28;20029;-71
2023/07/21 06:57:12;;;;;;;2.22;1.08;;;18.00;99.90;;;;;;4998119;28;20026;-72
2023/07/21 06:59:38;;;;;;;1.17;0.77;;;17.90;99.90;;;;;;4995041;28;20034;-70
2023/07/21 07:02:04;;;;;;;2.30;1.10;;;17.90;99.90;;;;;;4995881;28;20451;-71
2023/07/21 07:04:30;;;;;;;1.20;0.80;;;17.90;99.90;;;;;;4999763;28;20022;-71
2023/07/21 07:06:55;;;;;;;3.05;0.98;;;17.90;99.90;;;;;;4996006;28;20107;-72
2023/07/21 07:09:23;;;;;;;1.35;0.85;;;17.80;99.90;;;;;;4993427;28;20039;-71
2023/07/21 07:11:49;;;;;;;2.28;0.75;;;17.90;99.90;;;;;;4998764;28;20040;-72
2023/07/21 07:14:15;;;;;;;1.95;1.20;;;17.80;99.90;;;;;;4995149;28;20089;-71
2023/07/21 07:16:40;;;;;;;4.43;1.25;;;17.80;99.90;;;;;;4998497;28;20085;-73
2023/07/21 07:19:06;;;;;;;1.25;0.70;;;17.80;99.90;;;;;;4992199;28;20031;-71
2023/07/21 07:21:32;;;;;;;4.20;1.27;;;17.90;99.90;;;;;;4984823;28;20042;-72
2023/07/21 07:23:58;;;;;;;3.10;0.82;;;17.90;99.90;;;;;;4985659;28;20101;-71
2023/07/21 07:26:23;;;;;;;3.08;0.60;;;17.90;99.90;;;;;;4987730;28;20117;-71
2023/07/21 07:28:49;;;;;;;0.93;0.47;;;18.00;99.90;;;;;;4988975;28;20490;-71
2023/07/21 07:31:15;;;;;;;2.00;0.88;;;18.00;99.90;;;;;;4987126;28;20138;-71
2023/07/21 07:33:40;;;;;;;2.60;1.08;;;18.00;99.90;;;;;;4990421;28;20035;-71
2023/07/21 07:36:06;;;;;;;1.40;0.90;;;18.10;99.90;;;;;;4990750;28;20061;-71
2023/07/21 07:41:08;;;;;;;1.55;1.13;;;18.30;99.90;;;;;;5006402;23;20049;-68
2023/07/21 07:43:34;;;;;;;2.30;1.35;;;18.40;99.90;;;;;;4973967;28;20042;-71
2023/07/21 07:46:00;;;;;;;2.03;0.95;;;18.60;99.90;;;;;;4969056;28;20117;-69
2023/07/21 07:48:25;;;;;;;1.65;1.05;;;18.80;99.90;;;;;;4970322;28;20130;-70
2023/07/21 07:50:55;;;;;;;2.70;1.10;;;19.00;99.90;;;;;;4970365;28;20030;-70
2023/07/21 07:53:21;;;;;;;1.90;0.77;;;19.30;99.90;;;;;;4970361;28;20081;-69
2023/07/21 07:55:47;;;;;;;1.80;1.00;;;19.50;99.90;;;;;;4988572;28;20035;-70
2023/07/21 07:58:12;;;;;;;3.47;1.02;;;19.60;99.90;;;;;;4987514;28;20101;-70
2023/07/21 08:00:41;;;;;;;2.63;1.08;;;19.70;99.90;;;;;;4988474;28;20034;-68
2023/07/21 08:03:09;;;;;;;2.08;1.13;;;19.70;99.90;;;;;;4987878;28;20046;-69
2023/07/21 08:05:36;;;;;;;1.70;0.90;;;19.80;99.90;;;;;;4988184;28;20042;-70
2023/07/21 08:08:02;;;;;;;3.50;1.55;;;19.90;99.90;;;;;;4987490;28;20042;-70
2023/07/21 08:10:32;;;;;;;1.52;1.05;;;19.80;99.90;;;;;;4988850;28;20061;-70
2023/07/21 08:12:59;;;;;;;2.60;1.15;;;19.80;99.90;;;;;;4969721;28;20041;-70
2023/07/21 08:15:25;;;;;;;1.65;0.80;;;19.80;99.90;;;;;;4988363;28;20042;-70
2023/07/21 08:17:52;;;;;;;1.85;1.10;;;19.80;99.90;;;;;;4987858;28;20046;-70
2023/07/21 08:20:18;;;;;;;2.28;0.98;;;19.90;99.90;;;;;;4987912;28;20034;-69
2023/07/21 08:22:48;;;;;;;2.25;1.05;;;20.00;99.90;;;;;;4988394;28;20042;-70
2023/07/21 08:25:15;;;;;;;1.45;0.90;;;20.10;99.90;;;;;;4986925;28;20136;-70
2023/07/21 08:27:41;;;;;;;1.48;0.45;;;20.20;99.90;;;;;;4971113;28;20030;-70
2023/07/21 08:30:10;;;;;;;1.27;0.50;;;20.50;99.90;;;;;;4986669;28;20034;-70
2023/07/21 08:32:37;;;;;;;0.95;0.50;;;20.90;99.90;;;;;;4969740;28;20541;-69
2023/07/21 08:35:04;;;;;;;1.77;1.02;;;21.30;99.90;;;;;;4986892;28;20046;-70
2023/07/21 08:37:30;;;;;;;1.30;0.98;;;21.60;99.90;;;;;;4986172;28;20735;-70
2023/07/21 08:39:55;;;;;;;2.05;0.77;;;21.90;99.90;;;;;;4986319;28;20415;-70
2023/07/21 08:42:23;;;;;;;3.72;1.38;;;22.00;99.60;;;;;;4969990;28;20042;-69
2023/07/21 08:44:50;;;;;;;3.65;1.00;;;22.20;99.90;;;;;;4969579;28;20035;-73
2023/07/21 08:47:16;;;;;;;1.23;0.40;;;22.20;98.60;;;;;;4965551;28;20072;-69
2023/07/21 08:49:41;;;;;;;1.15;0.82;;;22.20;98.20;;;;;;4984712;28;20082;-69
2023/07/21 08:52:07;;;;;;;0.98;0.28;;;22.20;97.10;;;;;;4979138;28;20038;-68
2023/07/21 08:54:32;;;;;;;2.65;0.70;;;22.30;97.00;;;;;;4976617;28;20118;-70
2023/07/21 08:56:58;;;;;;;1.20;0.80;;;22.30;97.10;;;;;;4959970;28;20507;-70
2023/07/21 08:59:23;;;;;;;1.33;0.52;;;22.30;96.40;;;;;;4982357;28;20031;-69
2023/07/21 09:01:49;;;;;;;1.02;0.50;;;22.50;97.00;;;;;;4978793;28;20042;-70
2023/07/21 09:04:20;;;;;;;0.63;0.30;;;22.60;96.80;;;;;;4976558;28;20117;-69
2023/07/21 09:06:53;;;;;;;1.40;0.77;;;22.70;96.30;;;;;;4978151;28;20042;-69
2023/07/21 09:09:20;;;;;;;0.57;0.30;;;22.80;96.60;;;;;;4978997;28;20042;-74
2023/07/21 09:11:47;;;;;;;2.08;0.50;;;22.80;96.20;;;;;;4964625;28;20037;-70
2023/07/21 09:14:13;;;;;;;1.05;0.65;;;22.70;96.30;;;;;;4959295;28;20121;-69
2023/07/21 09:16:39;;;;;;;2.70;0.60;;;22.60;96.60;;;;;;4963182;28;20091;-70
2023/07/21 09:19:07;;;;;;;1.42;0.60;;;22.30;96.60;;;;;;4972838;28;20031;-70
2023/07/21 09:21:35;;;;;;;0.80;0.40;;;22.30;95.10;;;;;;4982491;28;20511;-71
2023/07/21 09:24:06;;;;;;;1.50;0.50;;;22.10;95.60;;;;;;4987647;28;20038;-69
2023/07/21 09:26:32;;;;;;;0.93;0.60;;;22.20;95.10;;;;;;4988050;28;20034;-71
2023/07/21 09:28:58;;;;;;;1.88;0.40;;;22.30;95.60;;;;;;4978418;28;20177;-69
2023/07/21 09:31:28;;;;;;;0.30;0.20;;;22.40;95.80;;;;;;4984496;28;20039;-71
2023/07/21 09:33:54;;;;;;;0.75;0.38;;;22.50;95.60;;;;;;4985031;28;20027;-71
2023/07/21 09:36:22;;;;;;;0.82;0.38;;;22.50;94.70;;;;;;4978489;28;20122;-72
2023/07/21 09:38:50;;;;;;;1.33;0.60;;;22.50;94.60;;;;;;4959189;28;20041;-69
2023/07/21 09:41:23;;;;;;;0.68;0.30;;;22.50;95.10;;;;;;4978811;28;20057;-69
2023/07/21 09:43:51;;;;;;;0.65;0.30;;;22.60;94.90;;;;;;4963841;28;20503;-69
2023/07/21 09:46:17;;;;;;;1.45;0.52;;;22.60;95.00;;;;;;4958913;28;20124;-68
2023/07/21 09:48:44;;;;;;;1.75;0.40;;;22.90;95.30;;;;;;4962513;28;20586;-69
2023/07/21 09:51:10;;;;;;;0.90;0.52;;;23.00;95.10;;;;;;4979279;28;20132;-69
2023/07/21 09:53:38;;;;;;;2.03;0.93;;;23.10;95.00;;;;;;4977173;28;20492;-71
2023/07/21 09:56:05;;;;;;;1.77;0.73;;;23.30;94.50;;;;;;4979434;28;20127;-69
2023/07/21 09:58:35;;;;;;;1.35;0.77;;;23.50;94.40;;;;;;4984078;28;20030;-70
2023/07/21 10:01:04;;;;;;;3.40;0.38;;;23.50;93.70;;;;;;4976189;28;20031;-69
2023/07/21 10:03:31;;;;;;;1.13;0.30;;;23.20;92.90;;;;;;4980086;28;20026;-69
2023/07/21 10:05:59;;;;;;;0.90;0.30;;;22.80;93.90;;;;;;4976964;28;20041;-69
2023/07/21 10:08:27;;;;;;;1.73;0.40;;;22.80;94.40;;;;;;4977002;28;20047;-69
2023/07/21 10:10:57;;;;;;;1.27;0.20;;;22.80;93.60;;;;;;4978494;28;20038;-69
2023/07/21 10:13:27;;;;;;;0.65;0.30;;;22.90;92.90;;;;;;4980185;28;20038;-69
2023/07/21 10:16:19;;;;;;;0.30;0.13;;;23.00;92.80;;;;;;4960109;28;20035;-69
2023/07/21 10:19:01;;;;;;;0.20;0.10;;;23.00;92.10;;;;;;4992705;28;20031;-70
2023/07/21 10:21:31;;;;;;;2.05;0.57;;;22.90;92.40;;;;;;4975608;28;20042;-69
2023/07/21 10:24:00;;;;;;;0.63;0.22;;;23.10;92.90;;;;;;4980793;28;20782;-70
2023/07/21 10:26:30;;;;;;;1.00;0.40;;;23.30;93.00;;;;;;4983631;28;20493;-71
2023/07/21 10:29:14;;;;;;;0.50;0.30;;;23.10;92.50;;;;;;4958713;28;20072;-72
2023/07/21 10:31:53;;;;;;;0.73;0.40;;;23.20;94.10;;;;;;4981288;28;20038;-70
2023/07/21 10:34:30;;;;;;;9.07;0.90;;;23.20;93.80;;;;;;4960253;28;20038;-68
2023/07/21 10:36:58;;;;;;;1.48;0.60;;;23.20;93.60;;;;;;4979527;28;20039;-71
2023/07/21 10:39:32;;;;;;;1.48;0.40;;;23.10;93.90;;;;;;4978944;28;20047;-69
2023/07/21 10:42:03;;;;;;;2.35;0.47;;;23.10;93.70;;;;;;4958412;28;20046;-69
2023/07/21 10:44:41;;;;;;;1.50;0.30;;;23.20;92.80;;;;;;4979791;28;20799;-70
2023/07/21 10:47:16;;;;;;;1.63;0.40;;;23.00;93.60;;;;;;4979429;28;20034;-68
2023/07/21 10:49:42;;;;;;;2.55;0.45;;;22.90;92.90;;;;;;4962107;28;20508;-69
2023/07/21 10:52:08;;;;;;;1.75;0.40;;;22.60;94.30;;;;;;4958329;28;20035;-71
2023/07/21 10:54:35;;;;;;;0.90;0.43;;;22.40;94.50;;;;;;4979927;28;20506;-69
2023/07/21 10:57:01;;;;;;;1.40;0.60;;;22.10;94.70;;;;;;4978865;28;20381;-70
2023/07/21 10:59:30;;;;;;;0.75;0.30;;;21.60;97.80;;;;;;4983700;28;20484;-70
2023/07/21 11:01:56;;;;;;;0.70;0.60;;;21.10;99.90;;;;;;4981923;28;20045;-69
2023/07/21 11:04:22;;;;;;;1.58;0.60;;;20.50;99.90;;;;;;4996643;28;20034;-68
2023/07/21 11:06:53;;;;;;;3.78;0.70;;;20.00;99.90;;;;;;4966439;28;20049;-69
2023/07/21 11:09:21;;;;;;;2.00;0.75;;;19.50;99.90;;;;;;4981238;28;20034;-69
2023/07/21 11:11:52;;;;;;;1.48;0.80;;;19.20;99.90;;;;;;4964259;28;20054;-69
2023/07/21 11:14:26;;;;;;;2.22;0.80;;;18.90;99.90;;;;;;4961961;28;20096;-70
2023/07/21 11:16:55;;;;;;;3.67;1.17;;;18.60;99.90;;;;;;4981995;28;20034;-69
2023/07/21 11:19:22;;;;;;;2.72;1.10;;;18.40;99.90;;;;;;4995672;28;20366;-68
2023/07/21 11:21:48;;;;;;;1.90;1.00;;;18.10;99.90;;;;;;4962079;28;20038;-70
2023/07/21 11:24:18;;;;;;;3.40;1.25;;;17.90;99.90;;;;;;4981868;28;20038;-70
2023/07/21 11:26:46;;;;;;;4.25;1.60;;;17.90;99.90;;;;;;4989701;28;20034;-68
2023/07/21 11:29:11;;;;;;;2.38;1.20;;;17.90;99.90;;;;;;4971595;28;20041;-70
2023/07/21 11:31:37;;;;;;;1.90;1.10;;;18.00;99.90;;;;;;4989707;28;20034;-70
2023/07/21 11:34:16;;;;;;;2.13;1.10;;;18.00;99.90;;;;;;4971967;28;20065;-69
2023/07/21 11:36:41;;;;;;;1.42;1.30;;;18.00;99.90;;;;;;4965270;28;20042;-69
2023/07/21 11:39:10;;;;;;;2.67;1.20;;;18.00;99.90;;;;;;4981130;28;20149;-68
2023/07/21 11:41:39;;;;;;;2.03;1.30;;;18.00;99.90;;;;;;4962679;28;20088;-67
2023/07/21 11:44:10;;;;;;;3.05;1.40;;;18.10;99.90;;;;;;4960689;28;20125;-68
2023/07/21 11:46:37;;;;;;;2.08;1.48;;;18.10;99.90;;;;;;4982156;28;20064;-71
2023/07/21 11:49:10;;;;;;;1.45;1.02;;;18.10;99.90;;;;;;4978620;28;20509;-68
2023/07/21 11:51:43;;;;;;;2.90;1.30;;;18.10;99.90;;;;;;4982813;28;20050;-68
2023/07/21 11:54:17;;;;;;;2.42;0.77;;;18.10;99.90;;;;;;4980622;28;20518;-69
2023/07/21 11:56:43;;;;;;;1.65;0.68;;;18.00;99.90;;;;;;4963353;28;20035;-68
2023/07/21 11:59:08;;;;;;;5.45;0.90;;;17.90;99.90;;;;;;4984582;28;20041;-68
2023/07/21 12:01:35;;;;;;;1.50;0.80;;;17.80;99.90;;;;;;4960327;28;20045;-70
2023/07/21 12:04:00;;;;;;;1.10;0.80;;;17.80;99.90;;;;;;4965555;28;20030;-69
2023/07/21 12:06:26;;;;;;;2.45;1.00;;;17.90;99.90;;;;;;4985588;28;20033;-68
2023/07/21 12:08:52;;;;;;;2.35;0.93;;;17.90;99.90;;;;;;4987217;28;20391;-70
2023/07/21 12:11:17;;;;;;;2.33;0.88;;;17.90;99.90;;;;;;4988134;28;20034;-69
2023/07/21 12:13:43;;;;;;;2.00;1.35;;;17.90;99.90;;;;;;4984785;28;20054;-71
2023/07/21 12:16:08;;;;;;;2.17;1.00;;;17.90;99.90;;;;;;4960774;28;20117;-67
2023/07/21 12:18:34;;;;;;;4.13;1.40;;;18.00;99.90;;;;;;4988244;28;20460;-67
2023/07/21 12:20:59;;;;;;;2.28;1.70;;;18.00;99.90;;;;;;4988622;28;20672;-69
2023/07/21 12:23:25;;;;;;;2.13;1.20;;;18.00;99.90;;;;;;4981599;28;20423;-67
2023/07/21 12:25:51;;;;;;;2.20;1.40;;;18.00;99.90;;;;;;4983932;28;20407;-68
2023/07/21 12:28:16;;;;;;;3.65;1.30;;;18.10;99.90;;;;;;4987323;28;20035;-69
2023/07/21 12:30:42;;;;;;;2.15;1.58;;;18.10;99.90;;;;;;4989096;28;20037;-70
2023/07/21 12:33:08;;;;;;;6.57;1.55;;;18.20;99.90;;;;;;4960610;28;20499;-69
2023/07/21 12:35:33;;;;;;;2.03;1.20;;;18.10;99.90;;;;;;4983546;28;20141;-67
2023/07/21 12:38:00;;;;;;;1.90;1.25;;;18.10;99.90;;;;;;4966367;28;20043;-68
2023/07/21 12:40:25;;;;;;;3.28;1.50;;;18.00;99.90;;;;;;4962814;28;20046;-69
2023/07/21 12:42:51;;;;;;;1.33;0.98;;;18.00;99.90;;;;;;4991833;28;20563;-71
2023/07/21 12:45:16;;;;;;;2.83;1.30;;;18.10;99.90;;;;;;4978921;28;20045;-70
2023/07/21 12:47:42;;;;;;;3.40;1.10;;;18.20;99.90;;;;;;4960167;28;20653;-68
2023/07/21 12:50:08;;;;;;;1.88;1.08;;;18.30;99.90;;;;;;4977275;28;20133;-69
2023/07/21 12:52:33;;;;;;;3.95;0.85;;;18.40;99.90;;;;;;4983755;28;20045;-67
2023/07/21 12:54:59;;;;;;;1.85;1.15;;;18.50;99.90;;;;;;4958842;28;20077;-69
2023/07/21 12:57:24;;;;;;;2.42;0.82;;;18.30;99.90;;;;;;4966934;28;20400;-68
2023/07/21 12:59:50;;;;;;;2.60;0.80;;;18.30;99.90;;;;;;4981139;28;20056;-69
2023/07/21 13:02:15;;;;;;;1.30;0.80;;;18.20;99.90;;;;;;4965756;28;23108;-69
2023/07/21 13:04:41;;;;;;;1.17;0.75;;;18.20;99.90;;;;;;4993963;28;20112;-68
2023/07/21 13:07:10;;;;;;;0.98;0.77;;;18.20;99.90;;;;;;4964068;28;20030;-69
2023/07/21 13:09:36;;;;;;;1.65;1.05;;;18.40;99.90;;;;;;4969396;28;20030;-69
2023/07/21 13:12:02;;;;;;;1.90;1.10;;;18.70;99.90;;;;;;4968756;28;20046;-68
2023/07/21 13:14:28;;;;;;;4.13;1.13;;;18.90;99.90;;;;;;4986059;28;20446;-68
2023/07/21 13:16:54;;;;;;;2.30;1.10;;;19.00;99.90;;;;;;4983887;28;20047;-68
2023/07/21 13:19:19;;;;;;;1.65;0.73;;;19.10;99.90;;;;;;4982143;28;20521;-68
2023/07/21 13:21:45;;;;;;;1.40;0.80;;;19.10;99.90;;;;;;4987332;28;20105;-70
2023/07/21 13:24:10;;;;;;;1.92;1.05;;;19.20;99.90;;;;;;4985598;28;20449;-70
2023/07/21 13:26:38;;;;;;;3.20;1.58;;;19.40;99.90;;;;;;4986366;28;20034;-70